Time;durP1;ratioP1;P1;durP2;ratioP2;P2;SDS_P1;SDS_P2;PMS_P1;PMS_P2;Temp;Humidity;BMP_temperature;BMP_pressure;BME280_temperature;BME280_humidity;BME280_pressure;Samples;Min_cycle;Max_cycle;Signal;HPM_P1;HPM_P2
2022/05/05 00:01:49;;;;;;;11.87;6.90;;;14.20;1.00;;;;;;5112153;28;20298;-82
2022/05/05 00:04:18;;;;;;;8.53;6.23;;;14.20;1.00;;;;;;5112526;28;20247;-83
2022/05/05 00:06:45;;;;;;;11.03;6.23;;;14.20;1.00;;;;;;5112094;28;20199;-83
2022/05/05 00:09:12;;;;;;;9.90;6.67;;;14.20;1.00;;;;;;5112215;28;20709;-83
2022/05/05 00:14:27;;;;;;;12.27;6.27;;;14.10;1.00;;;;;;5112596;28;20224;-84
2022/05/05 00:16:58;;;;;;;11.60;6.50;;;14.10;1.00;;;;;;5112733;28;20183;-83
2022/05/05 00:19:26;;;;;;;9.20;6.27;;;14.00;1.00;;;;;;5112697;28;20189;-83
2022/05/05 00:21:53;;;;;;;11.67;6.90;;;14.00;1.00;;;;;;5112656;28;20222;-84
2022/05/05 00:24:20;;;;;;;9.17;6.70;;;13.90;1.00;;;;;;5112042;28;20630;-87
2022/05/05 00:26:48;;;;;;;9.60;6.53;;;13.90;1.00;;;;;;5111908;28;20621;-83
2022/05/05 00:29:15;;;;;;;9.50;6.40;;;13.80;1.00;;;;;;5112013;28;20638;-83
2022/05/05 00:31:43;;;;;;;12.30;7.23;;;13.80;1.00;;;;;;5111989;28;20201;-82
2022/05/05 00:34:12;;;;;;;12.83;7.27;;;13.80;1.00;;;;;;5112279;28;20196;-83
2022/05/05 00:36:39;;;;;;;10.13;7.10;;;13.70;1.00;;;;;;5112254;28;20546;-83
2022/05/05 00:39:07;;;;;;;12.57;7.03;;;13.70;1.00;;;;;;5112204;28;20203;-86
2022/05/05 00:41:34;;;;;;;11.30;7.37;;;13.70;1.00;;;;;;5112095;28;20193;-83
2022/05/05 00:44:04;;;;;;;11.37;6.90;;;13.60;1.00;;;;;;5111748;28;20200;-83
2022/05/05 00:46:31;;;;;;;12.47;7.20;;;13.60;1.00;;;;;;5112272;28;20228;-83
2022/05/05 00:48:58;;;;;;;12.07;7.27;;;13.60;1.00;;;;;;5112015;28;20263;-83
2022/05/05 00:51:27;;;;;;;13.97;7.43;;;13.60;1.00;;;;;;5112138;28;20641;-83
2022/05/05 00:53:54;;;;;;;11.40;7.47;;;13.50;1.00;;;;;;5113124;28;20644;-83
2022/05/05 00:56:22;;;;;;;11.37;7.67;;;13.50;1.00;;;;;;5115806;28;20213;-82
2022/05/05 00:58:50;;;;;;;9.27;7.07;;;13.50;1.00;;;;;;5115524;28;20697;-86
2022/05/05 01:01:19;;;;;;;9.87;7.40;;;13.50;1.00;;;;;;5115766;28;20255;-83
2022/05/05 01:03:47;;;;;;;13.17;7.37;;;13.50;1.00;;;;;;5115794;28;20227;-84
2022/05/05 01:06:14;;;;;;;10.77;6.80;;;13.50;1.00;;;;;;5115349;28;20188;-83
2022/05/05 01:08:43;;;;;;;10.67;7.03;;;13.40;1.00;;;;;;5115213;28;20699;-83
2022/05/05 01:11:11;;;;;;;10.33;7.03;;;13.50;1.00;;;;;;5115404;28;20588;-83
2022/05/05 01:13:39;;;;;;;14.57;7.60;;;13.40;1.00;;;;;;5115118;28;20606;-82
2022/05/05 01:16:07;;;;;;;13.67;7.50;;;13.40;1.00;;;;;;5115539;28;20202;-83
2022/05/05 01:18:34;;;;;;;10.00;7.03;;;13.40;1.00;;;;;;5115678;28;20238;-84
2022/05/05 01:21:01;;;;;;;13.57;7.60;;;13.40;1.00;;;;;;5115403;28;20227;-83
2022/05/05 01:23:29;;;;;;;13.80;8.07;;;13.40;1.00;;;;;;5115657;27;20232;-83
2022/05/05 01:28:43;;;;;;;11.00;7.90;;;13.30;1.00;;;;;;5094729;28;20228;-86
2022/05/05 01:31:10;;;;;;;15.30;6.93;;;13.30;1.00;;;;;;5094754;28;20198;-83
2022/05/05 01:33:37;;;;;;;14.50;7.97;;;13.30;1.00;;;;;;5106369;28;20243;-85
2022/05/05 01:36:05;;;;;;;14.17;8.23;;;13.30;1.00;;;;;;5115283;28;20225;-85
2022/05/05 01:38:37;;;;;;;14.57;8.23;;;13.30;1.00;;;;;;5115160;28;20198;-84
2022/05/05 01:41:05;;;;;;;12.37;8.23;;;13.30;1.00;;;;;;5115034;28;20273;-83
2022/05/05 01:43:32;;;;;;;12.33;8.50;;;13.30;1.00;;;;;;5114827;28;20637;-86
2022/05/05 01:45:59;;;;;;;15.47;9.43;;;13.30;1.00;;;;;;5115143;28;20226;-83
2022/05/05 01:48:26;;;;;;;16.00;9.83;;;13.30;1.00;;;;;;5114557;28;20651;-83
2022/05/05 01:50:53;;;;;;;14.93;8.80;;;13.30;1.00;;;;;;5114835;28;20269;-83
2022/05/05 01:53:20;;;;;;;17.50;9.00;;;13.40;1.00;;;;;;5114792;28;20194;-83
2022/05/05 01:55:48;;;;;;;14.80;9.03;;;13.40;1.00;;;;;;5114700;28;20222;-84
2022/05/05 01:58:15;;;;;;;14.17;8.87;;;13.40;1.00;;;;;;5114347;28;20240;-83
2022/05/05 02:00:43;;;;;;;13.80;8.93;;;13.40;1.00;;;;;;5114701;28;20186;-83
2022/05/05 02:03:13;;;;;;;15.10;8.20;;;13.40;1.00;;;;;;5114672;28;20193;-83
2022/05/05 02:05:41;;;;;;;16.13;8.50;;;13.40;1.00;;;;;;5113950;28;20282;-83
2022/05/05 02:08:08;;;;;;;13.17;8.17;;;13.40;1.00;;;;;;5114341;28;20213;-83
2022/05/05 02:10:36;;;;;;;15.77;8.17;;;13.30;1.00;;;;;;5114231;28;20793;-84
2022/05/05 02:13:06;;;;;;;10.93;7.77;;;13.30;1.00;;;;;;5114266;28;20254;-86
2022/05/05 02:15:34;;;;;;;15.00;8.70;;;13.30;1.00;;;;;;5114677;28;20197;-82
2022/05/05 02:18:08;;;;;;;16.80;8.93;;;13.30;1.00;;;;;;5114661;28;20200;-86
2022/05/05 02:20:35;;;;;;;12.50;8.53;;;13.20;1.00;;;;;;5114265;28;20190;-83
2022/05/05 02:23:02;;;;;;;13.90;8.77;;;13.30;1.00;;;;;;5114368;28;20193;-87
2022/05/05 02:25:29;;;;;;;13.33;9.37;;;13.20;1.00;;;;;;5114163;28;20250;-84
2022/05/05 02:27:56;;;;;;;13.30;8.87;;;13.20;1.00;;;;;;5114014;28;20261;-83
2022/05/05 02:30:27;;;;;;;12.37;8.23;;;13.20;1.00;;;;;;5114007;28;20223;-83
2022/05/05 02:32:54;;;;;;;15.57;9.03;;;13.20;1.00;;;;;;5113807;28;20641;-83
2022/05/05 02:35:21;;;;;;;13.13;8.77;;;13.20;1.00;;;;;;5113977;28;20603;-83
2022/05/05 02:40:34;;;;;;;15.50;9.60;;;13.20;1.00;;;;;;5113987;28;20199;-84
2022/05/05 02:43:01;;;;;;;14.07;8.87;;;13.10;1.00;;;;;;5114024;28;20254;-83
2022/05/05 02:45:30;;;;;;;12.47;7.67;;;13.10;1.00;;;;;;5113396;28;20318;-83
2022/05/05 02:47:57;;;;;;;10.43;7.63;;;13.10;1.00;;;;;;5113372;28;20756;-83
2022/05/05 02:50:24;;;;;;;10.70;7.73;;;13.10;1.00;;;;;;5113392;28;20280;-83
2022/05/05 02:52:51;;;;;;;11.33;7.30;;;13.10;1.00;;;;;;5113730;28;20182;-83
2022/05/05 02:55:17;;;;;;;11.93;7.67;;;13.00;1.00;;;;;;5113421;28;20646;-83
2022/05/05 02:57:44;;;;;;;11.90;8.60;;;13.00;1.00;;;;;;5113880;28;20201;-83
2022/05/05 03:00:12;;;;;;;12.13;8.23;;;12.90;1.00;;;;;;5113808;28;20246;-85
2022/05/05 03:02:43;;;;;;;10.83;7.87;;;12.90;1.00;;;;;;5113350;28;20238;-83
2022/05/05 03:05:10;;;;;;;10.43;7.57;;;12.80;1.00;;;;;;5113334;28;20234;-85
2022/05/05 03:07:37;;;;;;;9.70;7.50;;;12.60;1.00;;;;;;5113272;28;20682;-84
2022/05/05 03:10:05;;;;;;;12.13;7.63;;;12.60;1.00;;;;;;5113879;28;20287;-83
2022/05/05 03:12:32;;;;;;;11.00;7.57;;;12.50;1.00;;;;;;5113766;28;20282;-83
2022/05/05 03:14:59;;;;;;;10.17;7.10;;;12.50;1.00;;;;;;5113241;28;20199;-83
2022/05/05 03:17:25;;;;;;;11.43;7.20;;;12.40;1.00;;;;;;5112585;28;20696;-87
2022/05/05 03:19:54;;;;;;;8.13;6.73;;;12.40;1.00;;;;;;5113406;28;20226;-84
2022/05/05 03:22:21;;;;;;;12.13;7.37;;;12.40;1.00;;;;;;5112986;28;20228;-83
2022/05/05 03:24:47;;;;;;;11.50;7.77;;;12.40;1.00;;;;;;5113010;28;20235;-85
2022/05/05 03:27:14;;;;;;;10.30;7.60;;;12.40;1.00;;;;;;5112613;28;20285;-84
2022/05/05 03:29:41;;;;;;;14.43;7.43;;;12.50;1.00;;;;;;5112793;28;20216;-84
2022/05/05 03:32:09;;;;;;;12.73;7.37;;;12.40;1.00;;;;;;5112721;28;20204;-87
2022/05/05 03:34:36;;;;;;;10.37;7.33;;;12.50;1.00;;;;;;5113235;28;20284;-83
2022/05/05 03:37:05;;;;;;;12.47;7.80;;;12.50;1.00;;;;;;5112897;28;20649;-83
2022/05/05 03:39:31;;;;;;;11.13;7.53;;;12.50;1.00;;;;;;5113019;28;20228;-86
2022/05/05 03:41:58;;;;;;;10.20;7.37;;;12.50;1.00;;;;;;5112933;28;20198;-83
2022/05/05 03:44:25;;;;;;;11.73;6.93;;;12.40;1.00;;;;;;5112891;28;20197;-83
2022/05/05 03:46:52;;;;;;;12.53;6.57;;;12.40;1.00;;;;;;5112643;28;20736;-84
2022/05/05 03:49:19;;;;;;;14.27;9.80;;;12.40;1.00;;;;;;5112833;28;20216;-86
2022/05/05 03:51:46;;;;;;;12.13;7.30;;;12.30;1.00;;;;;;5112894;28;20305;-82
2022/05/05 03:54:14;;;;;;;12.63;7.47;;;12.30;1.20;;;;;;5112998;28;20224;-83
2022/05/05 03:56:41;;;;;;;9.60;7.97;;;12.30;37.00;;;;;;5112917;28;20234;-83
2022/05/05 03:59:08;;;;;;;11.83;7.63;;;12.30;30.20;;;;;;5113027;28;20242;-83
2022/05/05 04:01:35;;;;;;;11.47;7.57;;;12.30;24.70;;;;;;5113167;28;20225;-84
2022/05/05 04:04:02;;;;;;;12.00;7.80;;;12.20;46.80;;;;;;5112821;28;20275;-86
2022/05/05 04:06:29;;;;;;;8.97;7.60;;;12.20;70.70;;;;;;5112411;28;20242;-85
2022/05/05 04:08:56;;;;;;;9.00;6.57;;;12.10;90.50;;;;;;5112870;28;20223;-83
2022/05/05 04:11:24;;;;;;;10.73;7.63;;;12.10;98.90;;;;;;5112824;28;20196;-83
2022/05/05 04:13:51;;;;;;;10.60;7.90;;;12.10;93.30;;;;;;5112815;28;20227;-87
2022/05/05 04:16:18;;;;;;;11.70;8.10;;;12.10;99.90;;;;;;5112685;28;20234;-83
2022/05/05 04:18:44;;;;;;;12.57;8.20;;;12.10;92.90;;;;;;5112927;28;20284;-84
2022/05/05 04:21:11;;;;;;;12.47;7.80;;;12.10;89.20;;;;;;5112319;28;20226;-84
2022/05/05 04:23:38;;;;;;;9.70;7.70;;;12.10;89.60;;;;;;5112862;28;20283;-84
2022/05/05 04:26:06;;;;;;;9.57;7.70;;;12.10;97.90;;;;;;5113020;28;20287;-86
2022/05/05 04:28:34;;;;;;;13.47;7.70;;;12.10;98.10;;;;;;5114502;28;20311;-84
2022/05/05 04:31:01;;;;;;;35.07;20.77;;;12.10;99.90;;;;;;5116570;28;20282;-85
2022/05/05 04:33:28;;;;;;;20.00;8.23;;;12.10;99.90;;;;;;5116198;28;20285;-87
2022/05/05 04:35:55;;;;;;;15.40;7.93;;;12.20;99.90;;;;;;5116438;28;20234;-83
2022/05/05 04:38:23;;;;;;;16.50;7.90;;;12.30;99.90;;;;;;5116707;28;20199;-84
2022/05/05 04:40:50;;;;;;;13.33;7.43;;;12.40;99.90;;;;;;5116636;28;20198;-83
2022/05/05 04:43:18;;;;;;;12.53;7.43;;;12.50;99.90;;;;;;5103931;28;20193;-84
2022/05/05 04:45:46;;;;;;;13.30;7.37;;;12.60;96.30;;;;;;5101232;28;20280;-85
2022/05/05 04:48:13;;;;;;;12.60;7.10;;;12.70;72.00;;;;;;5116358;28;20627;-83
2022/05/05 04:50:40;;;;;;;9.83;7.33;;;12.80;38.50;;;;;;5116232;28;20248;-84
2022/05/05 04:53:07;;;;;;;13.30;7.67;;;12.90;39.50;;;;;;5100108;28;20201;-87
2022/05/05 04:55:34;;;;;;;13.47;8.00;;;12.90;34.10;;;;;;5095447;28;20203;-83
2022/05/05 04:58:00;;;;;;;12.10;7.07;;;13.00;34.70;;;;;;5109127;28;20218;-83
2022/05/05 05:00:27;;;;;;;17.23;7.63;;;13.00;39.60;;;;;;5116137;28;20228;-82
2022/05/05 05:02:56;;;;;;;12.47;7.83;;;13.10;38.70;;;;;;5115723;28;20285;-84
2022/05/05 05:05:23;;;;;;;13.67;7.47;;;13.20;43.90;;;;;;5107468;27;20633;-84
2022/05/05 05:07:50;;;;;;;13.20;7.57;;;13.30;47.30;;;;;;5099274;27;20227;-84
2022/05/05 05:10:17;;;;;;;9.17;7.40;;;13.50;46.70;;;;;;5093860;28;20298;-83
2022/05/05 05:12:44;;;;;;;13.47;7.63;;;13.70;46.30;;;;;;5094939;28;20652;-83
2022/05/05 05:15:12;;;;;;;13.77;7.20;;;14.00;99.90;;;;;;5095716;28;20203;-83
2022/05/05 05:17:38;;;;;;;11.43;6.90;;;14.50;99.90;;;;;;5095283;28;20285;-83
2022/05/05 05:20:09;;;;;;;12.38;7.40;;;15.60;99.90;;;;;;5094736;28;20286;-83
2022/05/05 05:22:37;;;;;;;9.18;6.47;;;16.60;1.00;;;;;;5094884;28;20186;-84
2022/05/05 05:25:04;;;;;;;11.80;6.72;;;17.00;1.00;;;;;;5092689;28;20200;-86
2022/05/05 05:27:31;;;;;;;8.35;6.43;;;17.20;1.00;;;;;;5093837;28;20277;-84
2022/05/05 05:29:58;;;;;;;8.75;7.00;;;17.20;1.00;;;;;;5095102;28;20250;-86
2022/05/05 05:32:25;;;;;;;12.18;7.18;;;17.10;1.00;;;;;;5095160;28;20194;-84
2022/05/05 05:34:52;;;;;;;19.00;7.78;;;16.90;1.00;;;;;;5095173;28;20205;-87
2022/05/05 05:37:20;;;;;;;11.38;6.75;;;16.80;1.00;;;;;;5095119;28;20621;-84
2022/05/05 05:39:47;;;;;;;11.95;7.07;;;16.70;1.00;;;;;;5094145;28;20235;-84
2022/05/05 05:42:14;;;;;;;15.05;7.30;;;16.70;1.00;;;;;;5094809;28;20726;-87
2022/05/05 05:44:41;;;;;;;19.42;7.60;;;16.60;1.00;;;;;;5094750;28;20644;-84
2022/05/05 05:47:10;;;;;;;19.20;7.60;;;16.50;1.00;;;;;;5094898;28;20301;-84
2022/05/05 05:49:37;;;;;;;16.42;7.53;;;16.40;1.00;;;;;;5094668;28;20309;-85
2022/05/05 05:52:04;;;;;;;10.68;7.30;;;16.40;1.00;;;;;;5093703;28;20268;-84
2022/05/05 05:54:33;;;;;;;20.48;7.38;;;16.40;1.00;;;;;;5094759;28;20230;-86
2022/05/05 05:57:00;;;;;;;17.30;7.40;;;16.30;1.00;;;;;;5094485;28;20638;-87
2022/05/05 05:59:27;;;;;;;15.47;7.00;;;16.20;1.00;;;;;;5094615;28;20224;-85
2022/05/05 06:04:38;;;;;;;11.87;7.43;;;15.80;1.00;;;;;;5094397;28;20265;-85
2022/05/05 06:07:05;;;;;;;13.93;8.03;;;15.60;1.00;;;;;;5094108;28;20234;-85
2022/05/05 06:09:33;;;;;;;14.57;9.73;;;15.40;1.00;;;;;;5094110;28;20305;-85
2022/05/05 06:12:03;;;;;;;17.10;9.10;;;15.10;1.00;;;;;;5094555;28;20226;-86
2022/05/05 06:14:30;;;;;;;14.37;9.53;;;14.90;1.00;;;;;;5094355;28;20281;-85
2022/05/05 06:16:57;;;;;;;16.37;10.80;;;14.70;1.00;;;;;;5094015;28;20659;-85
2022/05/05 06:19:24;;;;;;;16.60;10.70;;;14.40;1.00;;;;;;5094230;28;20603;-84
2022/05/05 06:21:51;;;;;;;16.80;9.97;;;14.10;1.00;;;;;;5094041;28;20840;-84
2022/05/05 06:24:18;;;;;;;15.47;10.40;;;13.90;1.00;;;;;;5093992;28;20238;-85
2022/05/05 06:26:47;;;;;;;12.47;10.33;;;13.80;4.40;;;;;;5094408;28;20225;-86
2022/05/05 06:29:14;;;;;;;14.17;10.93;;;13.60;64.10;;;;;;5094401;28;20261;-86
2022/05/05 06:31:41;;;;;;;15.83;10.80;;;13.50;99.90;;;;;;5093605;28;20223;-86
2022/05/05 06:34:09;;;;;;;15.03;11.67;;;13.40;99.90;;;;;;5094060;28;20229;-86
2022/05/05 06:36:36;;;;;;;17.43;12.53;;;13.30;99.90;;;;;;5094211;28;20272;-86
2022/05/05 06:39:03;;;;;;;19.57;12.53;;;13.20;99.90;;;;;;5093911;28;20240;-86
2022/05/05 06:41:30;;;;;;;22.57;12.57;;;13.20;99.90;;;;;;5093806;28;20290;-86
2022/05/05 06:43:58;;;;;;;16.93;12.57;;;13.10;99.90;;;;;;5093640;28;20672;-86
2022/05/05 06:46:25;;;;;;;14.83;11.90;;;13.00;99.90;;;;;;5093681;28;20280;-86
2022/05/05 06:48:52;;;;;;;16.73;12.07;;;13.00;99.90;;;;;;5093833;28;20193;-85
2022/05/05 06:51:19;;;;;;;17.27;12.93;;;13.00;99.90;;;;;;5092456;28;20742;-85
2022/05/05 06:53:46;;;;;;;15.37;12.37;;;13.00;99.90;;;;;;5093866;28;20233;-85
2022/05/05 06:56:13;;;;;;;18.40;12.90;;;13.00;99.90;;;;;;5093163;28;20231;-85
2022/05/05 06:58:40;;;;;;;17.47;12.10;;;13.00;1.00;;;;;;5093526;28;20232;-85
2022/05/05 07:05:23;;;;;;;16.83;13.13;;;13.00;1.00;;;;;;5093261;28;20175;-85
2022/05/05 07:06:38;;;;;;;17.23;13.10;;;13.00;1.00;;;;;;5093344;28;20548;-86
2022/05/05 07:11:49;;;;;;;21.30;16.17;;;13.00;1.00;;;;;;5093365;28;20533;-85
2022/05/05 07:14:16;;;;;;;22.63;15.00;;;13.10;1.00;;;;;;5093496;28;20194;-85
2022/05/05 07:16:45;;;;;;;20.90;16.43;;;13.10;1.00;;;;;;5093118;28;20198;-85
2022/05/05 07:19:12;;;;;;;22.73;15.50;;;13.10;1.00;;;;;;5093054;28;20712;-86
2022/05/05 07:21:38;;;;;;;17.13;14.37;;;13.10;1.00;;;;;;5092982;28;20619;-86
2022/05/05 07:24:06;;;;;;;19.83;13.47;;;13.10;1.00;;;;;;5093067;28;20192;-86
2022/05/05 07:26:33;;;;;;;18.70;13.83;;;13.00;1.00;;;;;;5092966;28;20194;-85
2022/05/05 07:29:00;;;;;;;17.70;14.40;;;13.00;1.00;;;;;;5092970;28;20228;-86
2022/05/05 07:31:27;;;;;;;17.70;13.93;;;12.90;11.30;;;;;;5092946;28;20288;-86
2022/05/05 07:33:55;;;;;;;23.23;14.17;;;12.80;99.90;;;;;;5093244;28;20189;-86
2022/05/05 07:36:22;;;;;;;18.93;13.93;;;12.70;99.90;;;;;;5092815;28;20281;-86
2022/05/05 07:38:49;;;;;;;19.33;13.50;;;12.80;99.90;;;;;;5092905;28;20189;-86
2022/05/05 07:41:17;;;;;;;16.73;13.47;;;12.90;99.90;;;;;;5092873;28;20237;-86
2022/05/05 07:43:44;;;;;;;18.60;14.27;;;12.90;99.90;;;;;;5092873;28;20194;-86
2022/05/05 07:46:11;;;;;;;20.20;13.70;;;12.90;99.90;;;;;;5092579;28;20709;-86
2022/05/05 07:48:38;;;;;;;18.33;13.77;;;12.90;99.90;;;;;;5092821;28;20196;-85
2022/05/05 07:51:06;;;;;;;15.90;13.17;;;12.90;99.90;;;;;;5092360;28;20231;-87
2022/05/05 07:53:33;;;;;;;15.33;12.33;;;13.00;99.90;;;;;;5092688;28;20293;-86
2022/05/05 07:56:00;;;;;;;17.23;12.10;;;13.20;1.00;;;;;;5092352;28;20595;-85
2022/05/05 07:58:27;;;;;;;15.13;11.87;;;13.40;1.00;;;;;;5092226;28;20231;-85
2022/05/05 08:00:54;;;;;;;15.40;11.50;;;13.60;99.90;;;;;;5092698;28;20276;-86
2022/05/05 08:03:21;;;;;;;15.20;11.53;;;13.70;99.90;;;;;;5092613;28;20267;-85
2022/05/05 08:05:48;;;;;;;18.03;12.40;;;13.80;99.90;;;;;;5092710;28;20245;-87
2022/05/05 08:08:16;;;;;;;14.20;11.00;;;13.80;99.90;;;;;;5092612;28;20195;-85
2022/05/05 08:10:43;;;;;;;13.87;11.20;;;13.80;99.90;;;;;;5092379;28;20255;-85
2022/05/05 08:13:10;;;;;;;15.03;10.93;;;14.00;99.90;;;;;;5092116;28;20255;-85
2022/05/05 08:15:37;;;;;;;16.07;11.53;;;14.20;99.90;;;;;;5092087;28;20553;-87
2022/05/05 08:18:04;;;;;;;13.37;10.07;;;14.50;99.90;;;;;;5092504;28;20284;-86
2022/05/05 08:20:31;;;;;;;13.43;11.03;;;14.60;1.00;;;;;;5092437;28;20203;-85
2022/05/05 08:22:58;;;;;;;12.07;10.30;;;14.80;1.00;;;;;;5092057;28;20719;-86
2022/05/05 08:30:55;;;;;;;12.40;9.80;;;15.70;1.00;;;;;;5092435;28;20250;-86
2022/05/05 08:33:23;;;;;;;10.82;9.60;;;16.40;1.00;;;;;;5092544;28;20228;-87
2022/05/05 08:35:50;;;;;;;13.05;10.18;;;17.00;1.00;;;;;;5092104;28;20188;-86
2022/05/05 08:38:18;;;;;;;14.32;9.98;;;17.60;1.00;;;;;;5092271;28;20280;-86
2022/05/05 08:40:47;;;;;;;11.85;9.73;;;17.90;99.90;;;;;;5092124;28;20250;-86
2022/05/05 08:43:14;;;;;;;13.60;10.30;;;18.10;99.90;;;;;;5091806;28;20203;-85
2022/05/05 08:45:41;;;;;;;11.98;10.00;;;18.30;99.90;;;;;;5092091;28;20290;-87
2022/05/05 08:48:11;;;;;;;11.55;9.85;;;18.50;99.90;;;;;;5092161;28;20230;-86
2022/05/05 08:50:38;;;;;;;18.30;10.05;;;18.50;1.00;;;;;;5091638;28;20581;-85
2022/05/05 08:53:07;;;;;;;12.90;10.55;;;18.50;1.00;;;;;;5091826;28;20582;-88
2022/05/05 08:55:35;;;;;;;13.05;10.70;;;18.50;1.00;;;;;;5091997;28;20637;-86
2022/05/05 08:58:04;;;;;;;14.18;10.73;;;18.40;1.00;;;;;;5092252;28;20196;-85
2022/05/05 09:00:32;;;;;;;15.60;10.32;;;18.30;1.00;;;;;;5091870;28;20204;-86
2022/05/05 09:03:00;;;;;;;14.18;10.63;;;18.30;1.00;;;;;;5092189;28;20188;-86
2022/05/05 09:05:46;;;;;;;14.63;11.00;;;18.30;1.00;;;;;;5091938;28;20535;-87
2022/05/05 09:08:14;;;;;;;12.65;10.57;;;18.30;11.10;;;;;;5092104;28;20278;-85
2022/05/05 09:10:43;;;;;;;14.60;10.45;;;18.30;1.00;;;;;;5091779;28;20298;-86
2022/05/05 09:13:12;;;;;;;12.05;10.10;;;18.40;1.00;;;;;;5091880;28;20278;-86
2022/05/05 09:15:41;;;;;;;11.65;10.43;;;18.50;1.00;;;;;;5093690;28;20187;-86
2022/05/05 09:18:13;;;;;;;12.35;9.93;;;18.70;2.90;;;;;;5095452;28;20191;-85
2022/05/05 09:20:40;;;;;;;14.02;9.90;;;18.80;1.00;;;;;;5095224;28;20206;-87
2022/05/05 09:23:07;;;;;;;12.43;10.18;;;19.00;1.00;;;;;;5095146;28;20671;-86
2022/05/05 09:25:47;;;;;;;15.40;10.63;;;19.30;1.00;;;;;;5094837;28;20283;-86
2022/05/05 09:28:19;;;;;;;15.50;10.80;;;19.70;1.00;;;;;;5095444;28;20211;-86
2022/05/05 09:30:47;;;;;;;15.90;9.73;;;20.00;1.00;;;;;;5094890;28;20276;-87
2022/05/05 09:33:16;;;;;;;12.23;9.48;;;20.40;1.00;;;;;;5094847;28;20278;-87
2022/05/05 09:35:43;;;;;;;12.38;10.07;;;20.60;1.00;;;;;;5095341;28;20554;-86
2022/05/05 09:38:10;;;;;;;12.77;9.82;;;20.90;1.00;;;;;;5094855;28;20244;-87
2022/05/05 09:40:37;;;;;;;12.60;10.52;;;21.00;1.00;;;;;;5094676;28;20249;-87
2022/05/05 09:43:03;;;;;;;14.88;10.15;;;20.90;1.00;;;;;;5094699;28;20618;-86
2022/05/05 09:45:33;;;;;;;15.20;11.68;;;20.90;1.00;;;;;;5094852;28;20277;-87
2022/05/05 09:48:01;;;;;;;12.68;9.93;;;21.10;1.00;;;;;;5094825;28;20234;-87
2022/05/05 09:50:29;;;;;;;12.35;10.02;;;21.40;1.00;;;;;;5094442;28;20274;-87
2022/05/05 09:58:40;;;;;;;12.68;9.75;;;21.80;1.00;;;;;;5035119;28;20196;-85
2022/05/05 10:01:09;;;;;;;11.32;9.40;;;22.10;1.00;;;;;;5094502;28;20639;-85
2022/05/05 10:04:05;;;;;;;13.38;9.30;;;22.20;1.00;;;;;;5094403;28;20194;-87
2022/05/05 10:06:34;;;;;;;10.63;9.00;;;22.40;1.00;;;;;;5094590;28;20179;-86
2022/05/05 10:09:04;;;;;;;15.55;11.90;;;22.60;1.00;;;;;;5094151;28;20192;-86
2022/05/05 10:11:31;;;;;;;48.72;31.38;;;22.80;1.00;;;;;;5094017;28;20757;-86
2022/05/05 10:14:00;;;;;;;27.55;16.70;;;23.00;1.00;;;;;;5094296;28;20683;-86
2022/05/05 10:16:31;;;;;;;18.27;12.32;;;23.30;1.00;;;;;;5094643;28;20257;-86
2022/05/05 10:18:58;;;;;;;16.02;11.98;;;23.40;1.00;;;;;;5094615;28;20233;-86
2022/05/05 10:21:50;;;;;;;15.32;11.82;;;23.40;1.00;;;;;;5094518;28;20230;-86
2022/05/05 10:24:21;;;;;;;12.93;9.82;;;23.40;1.00;;;;;;5089925;28;20270;-85
2022/05/05 10:26:51;;;;;;;13.05;10.55;;;23.30;1.00;;;;;;5094053;28;20207;-86
2022/05/05 10:29:39;;;;;;;11.32;9.48;;;23.30;1.00;;;;;;5093809;28;20568;-86
2022/05/05 10:32:09;;;;;;;12.32;9.77;;;23.30;1.00;;;;;;5093682;28;20624;-86
2022/05/05 10:34:38;;;;;;;14.63;9.80;;;23.30;1.00;;;;;;5093996;28;20182;-86
2022/05/05 10:37:07;;;;;;;11.38;9.98;;;23.50;1.00;;;;;;5093865;28;20223;-86
2022/05/05 10:39:46;;;;;;;12.77;10.02;;;23.80;1.00;;;;;;5093824;28;20622;-86
2022/05/05 10:42:17;;;;;;;10.82;9.57;;;24.20;1.00;;;;;;5093872;28;20274;-86
2022/05/05 10:45:12;;;;;;;11.15;9.77;;;24.40;1.00;;;;;;5093424;28;20180;-86
2022/05/05 10:48:17;;;;;;;12.85;10.50;;;24.60;1.00;;;;;;5093863;28;20195;-85
2022/05/05 10:50:53;;;;;;;13.65;9.70;;;24.70;1.00;;;;;;5093055;28;20234;-85
2022/05/05 10:53:36;;;;;;;12.98;9.93;;;24.50;1.00;;;;;;5093435;28;20187;-85
2022/05/05 10:56:05;;;;;;;11.90;10.40;;;24.30;1.00;;;;;;5093310;28;20675;-85
2022/05/05 10:59:02;;;;;;;12.57;9.77;;;24.30;1.00;;;;;;5093717;28;20246;-86
2022/05/05 11:01:30;;;;;;;14.32;11.57;;;24.30;1.00;;;;;;5093527;28;20718;-86
2022/05/05 11:04:25;;;;;;;12.63;10.70;;;24.40;1.00;;;;;;5093375;28;20191;-85
2022/05/05 11:07:36;;;;;;;12.52;11.23;;;24.40;1.00;;;;;;5090771;28;20230;-87
2022/05/05 11:10:07;;;;;;;21.13;13.20;;;24.40;1.00;;;;;;5093456;28;20196;-85
2022/05/05 11:12:38;;;;;;;20.15;12.27;;;24.10;1.00;;;;;;5093312;28;20533;-87
2022/05/05 11:23:43;;;;;;;19.52;12.55;;;22.80;1.00;;;;;;5093028;28;20171;-84
2022/05/05 11:26:15;;;;;;;14.00;12.48;;;22.50;1.00;;;;;;5092799;28;20227;-84
2022/05/05 11:28:42;;;;;;;14.02;12.52;;;22.20;1.00;;;;;;5092743;28;20215;-85
2022/05/05 11:31:20;;;;;;;15.60;12.25;;;21.80;1.00;;;;;;5092577;28;20254;-83
2022/05/05 11:33:54;;;;;;;15.55;12.32;;;21.60;1.00;;;;;;5092820;28;20252;-85
2022/05/05 11:36:22;;;;;;;14.25;12.73;;;21.40;1.00;;;;;;5093011;28;20263;-87
2022/05/05 11:38:49;;;;;;;15.13;12.70;;;21.30;1.00;;;;;;5092451;28;20553;-85
2022/05/05 11:41:21;;;;;;;14.05;12.63;;;21.30;1.00;;;;;;5092855;28;20199;-85
2022/05/05 11:46:33;;;;;;;17.33;12.95;;;21.20;1.00;;;;;;5092774;28;20183;-85
2022/05/05 11:49:00;;;;;;;14.55;12.85;;;20.90;1.00;;;;;;5092753;28;20248;-85
2022/05/05 11:51:30;;;;;;;16.05;14.32;;;20.80;1.00;;;;;;5092626;28;20273;-85
2022/05/05 11:54:01;;;;;;;17.20;14.63;;;20.70;1.00;;;;;;5092474;28;20328;-86
2022/05/05 11:56:30;;;;;;;15.75;14.15;;;20.80;1.00;;;;;;5092562;28;20206;-86
2022/05/05 12:02:05;;;;;;;15.73;14.13;;;21.00;1.00;;;;;;5092607;28;20206;-84
2022/05/05 12:04:34;;;;;;;18.38;16.02;;;20.80;1.00;;;;;;5092763;28;20646;-86
2022/05/05 12:07:03;;;;;;;16.42;14.25;;;20.60;1.00;;;;;;5092539;28;20245;-84
2022/05/05 12:09:30;;;;;;;20.65;15.13;;;20.40;1.00;;;;;;5092889;28;20187;-87
2022/05/05 12:12:08;;;;;;;16.52;14.73;;;20.20;1.00;;;;;;5091999;28;20305;-85
2022/05/05 12:14:41;;;;;;;17.85;15.30;;;20.10;1.00;;;;;;5092422;28;20215;-85
2022/05/05 12:17:09;;;;;;;16.50;14.15;;;20.00;1.00;;;;;;5092715;28;20176;-84
2022/05/05 12:19:46;;;;;;;16.25;14.63;;;19.90;1.00;;;;;;5093016;28;20188;-86
2022/05/05 12:22:13;;;;;;;15.68;13.45;;;19.90;1.00;;;;;;5092076;28;20248;-85
2022/05/05 12:24:45;;;;;;;15.98;14.32;;;20.00;1.00;;;;;;5092403;28;20280;-86
2022/05/05 12:27:14;;;;;;;16.58;13.50;;;20.10;1.00;;;;;;5092171;28;20267;-85
2022/05/05 12:29:42;;;;;;;18.70;13.63;;;20.20;1.00;;;;;;5092269;28;20191;-84
2022/05/05 12:32:13;;;;;;;15.23;13.63;;;20.40;1.00;;;;;;5092061;28;20758;-85
2022/05/05 12:34:40;;;;;;;15.05;13.55;;;20.40;1.00;;;;;;5092061;28;20278;-87
2022/05/05 12:37:09;;;;;;;15.60;12.73;;;20.50;1.00;;;;;;5091969;28;20282;-86
2022/05/05 12:39:52;;;;;;;14.98;12.98;;;20.60;1.00;;;;;;5092121;28;20286;-85
2022/05/05 12:42:21;;;;;;;15.75;12.35;;;20.70;1.00;;;;;;5092241;28;20261;-87
2022/05/05 12:44:50;;;;;;;15.63;12.50;;;20.80;1.00;;;;;;5091644;28;20588;-86
2022/05/05 12:47:26;;;;;;;16.48;12.52;;;20.80;1.00;;;;;;5091641;28;20198;-85
2022/05/05 12:49:53;;;;;;;17.88;13.40;;;20.80;1.00;;;;;;5093038;28;20186;-86
2022/05/05 13:00:51;;;;;;;15.00;12.93;;;21.40;1.00;;;;;;5100593;28;20205;-86
2022/05/05 13:03:21;;;;;;;12.88;11.15;;;21.40;1.00;;;;;;5095289;28;20198;-85
2022/05/05 13:05:48;;;;;;;11.82;10.20;;;21.50;1.00;;;;;;5095612;28;20245;-86
2022/05/05 13:08:15;;;;;;;10.70;9.65;;;21.60;1.00;;;;;;5095391;28;20223;-84
2022/05/05 13:10:42;;;;;;;14.13;10.68;;;21.50;1.00;;;;;;5095409;28;20192;-84
2022/05/05 13:13:11;;;;;;;11.38;10.23;;;21.40;1.00;;;;;;5097888;28;20196;-85
2022/05/05 13:15:38;;;;;;;13.43;10.10;;;21.30;1.00;;;;;;5105297;28;20290;-85
2022/05/05 13:18:05;;;;;;;13.20;10.60;;;21.20;1.00;;;;;;5095261;28;20671;-84
2022/05/05 13:20:33;;;;;;;11.65;10.20;;;21.10;1.00;;;;;;5094405;28;20660;-84
2022/05/05 13:23:01;;;;;;;12.30;10.60;;;20.90;1.00;;;;;;5094225;28;20664;-82
2022/05/05 13:25:29;;;;;;;11.07;9.50;;;20.70;1.00;;;;;;5094439;28;20202;-83
2022/05/05 13:27:56;;;;;;;13.90;12.13;;;20.50;1.00;;;;;;5093645;28;20252;-85
2022/05/05 13:30:25;;;;;;;15.10;10.10;;;20.50;1.00;;;;;;5094488;28;20633;-83
2022/05/05 13:32:52;;;;;;;13.48;10.38;;;20.50;1.00;;;;;;5099859;28;20223;-87
2022/05/05 13:35:19;;;;;;;10.60;9.50;;;20.50;1.00;;;;;;5107532;28;20673;-84
2022/05/05 13:37:46;;;;;;;13.13;9.88;;;20.50;1.00;;;;;;5094740;28;20207;-84
2022/05/05 13:40:13;;;;;;;10.68;8.82;;;20.60;1.00;;;;;;5094176;28;20656;-83